Azalea Ace — A8ZJ6 — position and weather

sailwx.info

Track history (hours):
 
Tides and Currents Weather Stations Pressure Air Temp Water Temp Dewpoint Dewpoint Depression Visibility Wind Speed Wind Dir Waves Ship Positions

Azalea Ace

Last reported at 2014-Jul-30 16:17 UTC. Time now 2014-Jul-31 09:29 UTC.
Position N 34°30' E 134°37'.

Length 180 m; draft 8.6 m.

Type: Ship. MMSI: 636015228.

Date/timePositionNaut miles runAvg speedWind from/ knotsBaromVisibWave heightAir tempDewpointWater temp
2014-Jul-30 16:17N 34°30' E 134°37'1013.0
2014-Jul-30 15:32N 34°34' E 134°48'1313.2
2014-Jul-30 14:34N 34°36' E 135°04'6 5.1
2014-Jul-30 13:22N 34°35' E 135°11'0 0.0
2014-Jul-30 12:22N 34°35' E 135°11'0 0.0
2014-Jul-30 11:28N 34°35' E 135°11'0 0.0
2014-Jul-30 10:28N 34°35' E 135°11'0 0.0
2014-Jul-30 09:28N 34°35' E 135°11'0 0.0
2014-Jul-30 08:28N 34°35' E 135°11'1 0.9
2014-Jul-30 07:33N 34°35' E 135°12'7 7.0
2014-Jul-30 06:33N 34°41' E 135°15'0 0.4
2014-Jul-30 05:31N 34°42' E 135°14'0 0.0
2014-Jul-30 04:19N 34°42' E 135°14'0 0.0
2014-Jul-30 03:31N 34°42' E 135°14'0 0.0
2014-Jul-30 02:31N 34°42' E 135°14'0 0.0
2014-Jul-30 01:31N 34°42' E 135°14'0 0.0
2014-Jul-30 00:31N 34°42' E 135°14'0 0.0
2014-Jul-29 23:25N 34°42' E 135°14'0 0.0
2014-Jul-29 22:31N 34°42' E 135°14'0 0.0
2014-Jul-29 21:31N 34°42' E 135°14'0 0.0
2014-Jul-29 20:31N 34°42' E 135°14'0 0.0
2014-Jul-29 19:31N 34°42' E 135°14'0 0.0
2014-Jul-29 18:31N 34°42' E 135°14'0 0.0
2014-Jul-29 17:31N 34°42' E 135°14'0 0.0
2014-Jul-29 16:31N 34°42' E 135°14'0 0.0
2014-Jul-29 15:31N 34°42' E 135°14'0 0.0
2014-Jul-29 14:31N 34°42' E 135°14'0 0.0
2014-Jul-29 13:31N 34°42' E 135°14'0 0.0
2014-Jul-29 12:25N 34°42' E 135°14'0 0.0
2014-Jul-29 11:31N 34°42' E 135°14'0 0.0
2014-Jul-29 10:31N 34°42' E 135°14'0 0.0
2014-Jul-29 09:31N 34°42' E 135°14'0 0.0
2014-Jul-29 08:31N 34°42' E 135°14'0 0.0
2014-Jul-29 07:28N 34°42' E 135°14'0 0.0
2014-Jul-29 06:31N 34°42' E 135°14'0 0.0
2014-Jul-29 05:31N 34°42' E 135°14'0 0.0
2014-Jul-29 04:31N 34°42' E 135°14'0 0.0
2014-Jul-29 03:25N 34°42' E 135°14'0 0.0
2014-Jul-29 02:31N 34°42' E 135°14'0 0.0
2014-Jul-29 01:19N 34°42' E 135°14'0 0.0
2014-Jul-29 00:31N 34°42' E 135°14'0 0.0
2014-Jul-28 23:31N 34°42' E 135°14'1 0.7
2014-Jul-28 22:33N 34°41' E 135°15'8 7.7
2014-Jul-28 21:33N 34°34' E 135°17'9 9.4
2014-Jul-28 20:33N 34°28' E 135°08'1414.4
2014-Jul-28 19:33N 34°16' E 134°59'1110.6
2014-Jul-28 18:33N 34°05' E 135°00'1312.9
2014-Jul-28 17:33N 33°52' E 135°00'170 3.4
2014-Jul-26 15:33N 34°21' E 138°23'4017.3
2014-Jul-26 13:13N 34°32' E 139°10'1217.1
2014-Jul-26 12:31N 34°36' E 139°23'1915.8
2014-Jul-26 11:17N 34°52' E 139°37'1318.0
2014-Jul-26 10:34N 35°04' E 139°42'1212.4
2014-Jul-26 09:34N 35°16' E 139°46'9 9.2
2014-Jul-26 08:33N 35°25' E 139°47'6 6.1
2014-Jul-26 07:33N 35°22' E 139°54'0 0.0
2014-Jul-26 06:33N 35°22' E 139°54'0 0.0
2014-Jul-26 05:30N 35°22' E 139°54'0 0.0
2014-Jul-26 04:30N 35°22' E 139°54'0 0.0
2014-Jul-26 03:33N 35°22' E 139°54'0 0.0
2014-Jul-26 02:30N 35°22' E 139°54'0 0.0
2014-Jul-26 01:33N 35°22' E 139°54'0 0.0
2014-Jul-26 00:33N 35°22' E 139°54'0 0.0
2014-Jul-25 23:33N 35°22' E 139°54'0 0.0
2014-Jul-25 22:33N 35°22' E 139°54'0 0.0
2014-Jul-25 21:33N 35°22' E 139°54'0 0.1
2014-Jul-25 20:33N 35°22' E 139°53'5 5.1
2014-Jul-25 19:33N 35°25' E 139°48'6 5.8
2014-Jul-25 18:34N 35°28' E 139°42'0 0.4
2014-Jul-25 17:32N 35°28' E 139°41'0 0.0
2014-Jul-25 16:32N 35°28' E 139°41'0 0.0
2014-Jul-25 15:32N 35°28' E 139°41'0 0.0
2014-Jul-25 14:29N 35°28' E 139°41'0 0.1
2014-Jul-25 13:32N 35°28' E 139°41'0 0.0
2014-Jul-25 12:32N 35°28' E 139°41'0 0.0
2014-Jul-25 11:29N 35°28' E 139°41'0 0.0
2014-Jul-25 10:32N 35°28' E 139°41'0 0.0
2014-Jul-25 09:32N 35°28' E 139°41'0 0.0
2014-Jul-25 08:32N 35°28' E 139°41'0 0.0
2014-Jul-25 07:32N 35°28' E 139°41'0 0.0
2014-Jul-25 06:32N 35°28' E 139°41'0 0.0
2014-Jul-25 05:32N 35°28' E 139°41'0 0.0
2014-Jul-25 04:32N 35°28' E 139°41'0 0.0
2014-Jul-25 03:32N 35°28' E 139°41'0 0.0
2014-Jul-25 02:32N 35°28' E 139°41'0 0.0
2014-Jul-25 01:32N 35°28' E 139°41'0 0.0
2014-Jul-25 00:32N 35°28' E 139°41'0 0.0
2014-Jul-24 23:32N 35°28' E 139°41'0 0.0
2014-Jul-24 22:34N 35°28' E 139°41'3 3.3
2014-Jul-24 21:34N 35°26' E 139°45'1110.5
2014-Jul-24 20:33N 35°15' E 139°47'9 8.7
2014-Jul-24 19:34N 35°07' E 139°46'1010.2
2014-Jul-24 18:33N 34°57' E 139°42'1716.5
2014-Jul-24 17:33N 34°41' E 139°41'1717.3
2014-Jul-24 16:34N 34°24' E 139°39'1514.5
2014-Jul-24 15:33N 34°15' E 139°25'1817.0
2014-Jul-24 14:31N 34°03' E 139°09'2317.4
2014-Jul-24 13:10N 33°48' E 138°48'39512.5
2014-Jul-23 05:32N 34°01' E 130°51'1211.3
2014-Jul-23 04:28N 34°03' E 130°38'1718.0
2014-Jul-23 03:33N 34°02' E 130°17'  
Track history (hours):
 
Tides and Currents Weather Stations Pressure Air Temp Water Temp Dewpoint Dewpoint Depression Visibility Wind Speed Wind Dir Waves Ship Positions

Azalea Ace

Last reported at 2014-Jul-30 16:17 UTC. Time now 2014-Jul-31 09:29 UTC.
Position N 34°30' E 134°37'.

Length 180 m; draft 8.6 m.

Type: Ship. MMSI: 636015228.

Date/timePositionNaut miles runAvg speedWind from/ knotsBaromVisibWave heightAir tempDewpointWater temp
2014-Jul-30 16:17N 34°30' E 134°37'1013.0
2014-Jul-30 15:32N 34°34' E 134°48'1313.2
2014-Jul-30 14:34N 34°36' E 135°04'6 5.1
2014-Jul-30 13:22N 34°35' E 135°11'0 0.0
2014-Jul-30 12:22N 34°35' E 135°11'0 0.0
2014-Jul-30 11:28N 34°35' E 135°11'0 0.0
2014-Jul-30 10:28N 34°35' E 135°11'0 0.0
2014-Jul-30 09:28N 34°35' E 135°11'0 0.0
2014-Jul-30 08:28N 34°35' E 135°11'1 0.9
2014-Jul-30 07:33N 34°35' E 135°12'7 7.0
2014-Jul-30 06:33N 34°41' E 135°15'0 0.4
2014-Jul-30 05:31N 34°42' E 135°14'0 0.0
2014-Jul-30 04:19N 34°42' E 135°14'0 0.0
2014-Jul-30 03:31N 34°42' E 135°14'0 0.0
2014-Jul-30 02:31N 34°42' E 135°14'0 0.0
2014-Jul-30 01:31N 34°42' E 135°14'0 0.0
2014-Jul-30 00:31N 34°42' E 135°14'0 0.0
2014-Jul-29 23:25N 34°42' E 135°14'0 0.0
2014-Jul-29 22:31N 34°42' E 135°14'0 0.0
2014-Jul-29 21:31N 34°42' E 135°14'0 0.0
2014-Jul-29 20:31N 34°42' E 135°14'0 0.0
2014-Jul-29 19:31N 34°42' E 135°14'0 0.0
2014-Jul-29 18:31N 34°42' E 135°14'0 0.0
2014-Jul-29 17:31N 34°42' E 135°14'0 0.0
2014-Jul-29 16:31N 34°42' E 135°14'0 0.0
2014-Jul-29 15:31N 34°42' E 135°14'0 0.0
2014-Jul-29 14:31N 34°42' E 135°14'0 0.0
2014-Jul-29 13:31N 34°42' E 135°14'0 0.0
2014-Jul-29 12:25N 34°42' E 135°14'0 0.0
2014-Jul-29 11:31N 34°42' E 135°14'0 0.0
2014-Jul-29 10:31N 34°42' E 135°14'0 0.0
2014-Jul-29 09:31N 34°42' E 135°14'0 0.0
2014-Jul-29 08:31N 34°42' E 135°14'0 0.0
2014-Jul-29 07:28N 34°42' E 135°14'0 0.0
2014-Jul-29 06:31N 34°42' E 135°14'0 0.0
2014-Jul-29 05:31N 34°42' E 135°14'0 0.0
2014-Jul-29 04:31N 34°42' E 135°14'0 0.0
2014-Jul-29 03:25N 34°42' E 135°14'0 0.0
2014-Jul-29 02:31N 34°42' E 135°14'0 0.0
2014-Jul-29 01:19N 34°42' E 135°14'0 0.0
2014-Jul-29 00:31N 34°42' E 135°14'0 0.0
2014-Jul-28 23:31N 34°42' E 135°14'1 0.7
2014-Jul-28 22:33N 34°41' E 135°15'8 7.7
2014-Jul-28 21:33N 34°34' E 135°17'9 9.4
2014-Jul-28 20:33N 34°28' E 135°08'1414.4
2014-Jul-28 19:33N 34°16' E 134°59'1110.6
2014-Jul-28 18:33N 34°05' E 135°00'1312.9
2014-Jul-28 17:33N 33°52' E 135°00'170 3.4
2014-Jul-26 15:33N 34°21' E 138°23'4017.3
2014-Jul-26 13:13N 34°32' E 139°10'1217.1
2014-Jul-26 12:31N 34°36' E 139°23'1915.8
2014-Jul-26 11:17N 34°52' E 139°37'1318.0
2014-Jul-26 10:34N 35°04' E 139°42'1212.4
2014-Jul-26 09:34N 35°16' E 139°46'9 9.2
2014-Jul-26 08:33N 35°25' E 139°47'6 6.1
2014-Jul-26 07:33N 35°22' E 139°54'0 0.0
2014-Jul-26 06:33N 35°22' E 139°54'0 0.0
2014-Jul-26 05:30N 35°22' E 139°54'0 0.0
2014-Jul-26 04:30N 35°22' E 139°54'0 0.0
2014-Jul-26 03:33N 35°22' E 139°54'0 0.0
2014-Jul-26 02:30N 35°22' E 139°54'0 0.0
2014-Jul-26 01:33N 35°22' E 139°54'0 0.0
2014-Jul-26 00:33N 35°22' E 139°54'0 0.0
2014-Jul-25 23:33N 35°22' E 139°54'0 0.0
2014-Jul-25 22:33N 35°22' E 139°54'0 0.0
2014-Jul-25 21:33N 35°22' E 139°54'0 0.1
2014-Jul-25 20:33N 35°22' E 139°53'5 5.1
2014-Jul-25 19:33N 35°25' E 139°48'6 5.8
2014-Jul-25 18:34N 35°28' E 139°42'0 0.4
2014-Jul-25 17:32N 35°28' E 139°41'0 0.0
2014-Jul-25 16:32N 35°28' E 139°41'0 0.0
2014-Jul-25 15:32N 35°28' E 139°41'0 0.0
2014-Jul-25 14:29N 35°28' E 139°41'0 0.1
2014-Jul-25 13:32N 35°28' E 139°41'0 0.0
2014-Jul-25 12:32N 35°28' E 139°41'0 0.0
2014-Jul-25 11:29N 35°28' E 139°41'0 0.0
2014-Jul-25 10:32N 35°28' E 139°41'0 0.0
2014-Jul-25 09:32N 35°28' E 139°41'0 0.0
2014-Jul-25 08:32N 35°28' E 139°41'0 0.0
2014-Jul-25 07:32N 35°28' E 139°41'0 0.0
2014-Jul-25 06:32N 35°28' E 139°41'0 0.0
2014-Jul-25 05:32N 35°28' E 139°41'0 0.0
2014-Jul-25 04:32N 35°28' E 139°41'0 0.0
2014-Jul-25 03:32N 35°28' E 139°41'0 0.0
2014-Jul-25 02:32N 35°28' E 139°41'0 0.0
2014-Jul-25 01:32N 35°28' E 139°41'0 0.0
2014-Jul-25 00:32N 35°28' E 139°41'0 0.0
2014-Jul-24 23:32N 35°28' E 139°41'0 0.0
2014-Jul-24 22:34N 35°28' E 139°41'3 3.3
2014-Jul-24 21:34N 35°26' E 139°45'1110.5
2014-Jul-24 20:33N 35°15' E 139°47'9 8.7
2014-Jul-24 19:34N 35°07' E 139°46'1010.2
2014-Jul-24 18:33N 34°57' E 139°42'1716.5
2014-Jul-24 17:33N 34°41' E 139°41'1717.3
2014-Jul-24 16:34N 34°24' E 139°39'1514.5
2014-Jul-24 15:33N 34°15' E 139°25'1817.0
2014-Jul-24 14:31N 34°03' E 139°09'2317.4
2014-Jul-24 13:10N 33°48' E 138°48'39512.5
2014-Jul-23 05:32N 34°01' E 130°51'1211.3
2014-Jul-23 04:28N 34°03' E 130°38'1718.0
2014-Jul-23 03:33N 34°02' E 130°17'  

Dump ship's entire track history